sensor_id;sensor_type;location;lat;lon;timestamp;temperature;humidity
20372;DHT22;42924;37.564;-122.048;2022-09-11T00:02:24;30.40;99.90
20372;DHT22;42924;37.564;-122.048;2022-09-11T00:04:57;30.40;99.90
20372;DHT22;42924;37.564;-122.048;2022-09-11T00:07:29;30.40;99.90
20372;DHT22;42924;37.564;-122.048;2022-09-11T00:10:00;30.40;99.90
20372;DHT22;42924;37.564;-122.048;2022-09-11T00:12:31;30.40;99.90
20372;DHT22;42924;37.564;-122.048;2022-09-11T00:15:03;30.30;99.90
20372;DHT22;42924;37.564;-122.048;2022-09-11T00:17:33;30.20;99.90
20372;DHT22;42924;37.564;-122.048;2022-09-11T00:20:08;30.20;99.90
20372;DHT22;42924;37.564;-122.048;2022-09-11T00:22:38;30.20;99.90
20372;DHT22;42924;37.564;-122.048;2022-09-11T00:25:10;30.10;99.90
20372;DHT22;42924;37.564;-122.048;2022-09-11T00:27:41;30.10;99.90
20372;DHT22;42924;37.564;-122.048;2022-09-11T00:30:12;30.00;99.90
20372;DHT22;42924;37.564;-122.048;2022-09-11T00:32:46;30.00;99.90
20372;DHT22;42924;37.564;-122.048;2022-09-11T00:35:20;29.90;99.90
20372;DHT22;42924;37.564;-122.048;2022-09-11T00:37:50;29.90;99.90
20372;DHT22;42924;37.564;-122.048;2022-09-11T00:40:20;29.80;99.90
20372;DHT22;42924;37.564;-122.048;2022-09-11T00:42:53;29.70;99.90
20372;DHT22;42924;37.564;-122.048;2022-09-11T00:45:26;29.70;99.90
20372;DHT22;42924;37.564;-122.048;2022-09-11T00:47:58;29.70;99.90
20372;DHT22;42924;37.564;-122.048;2022-09-11T00:50:33;29.60;99.90
20372;DHT22;42924;37.564;-122.048;2022-09-11T00:53:08;29.60;99.90
20372;DHT22;42924;37.564;-122.048;2022-09-11T00:55:49;29.60;99.90
20372;DHT22;42924;37.564;-122.048;2022-09-11T00:58:24;29.60;99.90
20372;DHT22;42924;37.564;-122.048;2022-09-11T01:01:01;29.50;99.90
20372;DHT22;42924;37.564;-122.048;2022-09-11T01:03:34;29.50;99.90
20372;DHT22;42924;37.564;-122.048;2022-09-11T01:06:07;29.40;99.90
20372;DHT22;42924;37.564;-122.048;2022-09-11T01:08:38;29.40;99.90
20372;DHT22;42924;37.564;-122.048;2022-09-11T01:13:55;29.30;99.90
20372;DHT22;42924;37.564;-122.048;2022-09-11T01:19:34;29.10;99.90
20372;DHT22;42924;37.564;-122.048;2022-09-11T01:29:07;29.00;99.90
20372;DHT22;42924;37.564;-122.048;2022-09-11T01:31:20;28.90;99.90
20372;DHT22;42924;37.564;-122.048;2022-09-11T01:34:00;28.90;99.90
20372;DHT22;42924;37.564;-122.048;2022-09-11T01:36:45;29.00;99.90
20372;DHT22;42924;37.564;-122.048;2022-09-11T01:39:26;29.00;99.90
20372;DHT22;42924;37.564;-122.048;2022-09-11T01:42:08;28.90;99.90
20372;DHT22;42924;37.564;-122.048;2022-09-11T01:44:51;28.90;99.90
20372;DHT22;42924;37.564;-122.048;2022-09-11T01:47:26;28.90;99.90
20372;DHT22;42924;37.564;-122.048;2022-09-11T01:50:03;28.80;99.90
20372;DHT22;42924;37.564;-122.048;2022-09-11T01:52:52;28.90;99.90
20372;DHT22;42924;37.564;-122.048;2022-09-11T01:55:42;28.80;99.90
20372;DHT22;42924;37.564;-122.048;2022-09-11T01:58:25;28.80;99.90
20372;DHT22;42924;37.564;-122.048;2022-09-11T02:01:11;28.80;99.90
20372;DHT22;42924;37.564;-122.048;2022-09-11T02:03:53;28.80;99.90
20372;DHT22;42924;37.564;-122.048;2022-09-11T02:06:39;28.70;99.90
20372;DHT22;42924;37.564;-122.048;2022-09-11T02:09:17;28.70;99.90
20372;DHT22;42924;37.564;-122.048;2022-09-11T02:11:52;28.60;99.90
20372;DHT22;42924;37.564;-122.048;2022-09-11T02:14:41;28.50;99.90
20372;DHT22;42924;37.564;-122.048;2022-09-11T02:20:07;28.30;99.90
20372;DHT22;42924;37.564;-122.048;2022-09-11T02:22:39;28.30;99.90
20372;DHT22;42924;37.564;-122.048;2022-09-11T02:25:12;28.30;99.90
20372;DHT22;42924;37.564;-122.048;2022-09-11T02:27:45;28.20;99.90
20372;DHT22;42924;37.564;-122.048;2022-09-11T02:30:17;28.20;99.90
20372;DHT22;42924;37.564;-122.048;2022-09-11T02:32:47;28.20;99.90
20372;DHT22;42924;37.564;-122.048;2022-09-11T02:35:18;28.20;99.90
20372;DHT22;42924;37.564;-122.048;2022-09-11T02:49:03;28.20;99.90
20372;DHT22;42924;37.564;-122.048;2022-09-11T02:55:26;28.10;99.90
20372;DHT22;42924;37.564;-122.048;2022-09-11T03:00:43;28.00;99.90
20372;DHT22;42924;37.564;-122.048;2022-09-11T03:03:17;28.00;99.90
20372;DHT22;42924;37.564;-122.048;2022-09-11T03:05:51;28.00;99.90
20372;DHT22;42924;37.564;-122.048;2022-09-11T03:08:23;28.00;99.90
20372;DHT22;42924;37.564;-122.048;2022-09-11T03:10:54;28.00;99.90
20372;DHT22;42924;37.564;-122.048;2022-09-11T03:13:26;27.90;99.90
20372;DHT22;42924;37.564;-122.048;2022-09-11T03:16:00;27.80;99.90
20372;DHT22;42924;37.564;-122.048;2022-09-11T03:18:33;27.80;99.90
20372;DHT22;42924;37.564;-122.048;2022-09-11T03:21:04;27.80;99.90
20372;DHT22;42924;37.564;-122.048;2022-09-11T03:23:38;27.80;99.90
20372;DHT22;42924;37.564;-122.048;2022-09-11T03:26:09;27.70;99.90
20372;DHT22;42924;37.564;-122.048;2022-09-11T03:28:42;27.70;99.90
20372;DHT22;42924;37.564;-122.048;2022-09-11T03:31:16;27.80;99.90
20372;DHT22;42924;37.564;-122.048;2022-09-11T03:33:47;27.70;99.90
20372;DHT22;42924;37.564;-122.048;2022-09-11T03:36:21;27.70;99.90
20372;DHT22;42924;37.564;-122.048;2022-09-11T03:38:53;27.80;99.90
20372;DHT22;42924;37.564;-122.048;2022-09-11T03:41:24;27.80;99.90
20372;DHT22;42924;37.564;-122.048;2022-09-11T03:43:58;27.80;99.90
20372;DHT22;42924;37.564;-122.048;2022-09-11T03:46:31;27.80;99.90
20372;DHT22;42924;37.564;-122.048;2022-09-11T03:49:01;27.80;99.90
20372;DHT22;42924;37.564;-122.048;2022-09-11T03:51:34;27.80;99.90
20372;DHT22;42924;37.564;-122.048;2022-09-11T03:54:07;27.70;99.90
20372;DHT22;42924;37.564;-122.048;2022-09-11T03:56:38;27.70;99.90
20372;DHT22;42924;37.564;-122.048;2022-09-11T03:59:11;27.70;99.90
20372;DHT22;42924;37.564;-122.048;2022-09-11T04:01:50;27.70;99.90
20372;DHT22;42924;37.564;-122.048;2022-09-11T04:04:23;27.70;99.90
20372;DHT22;42924;37.564;-122.048;2022-09-11T04:06:54;27.70;99.90
20372;DHT22;42924;37.564;-122.048;2022-09-11T04:09:25;27.60;99.90
20372;DHT22;42924;37.564;-122.048;2022-09-11T04:11:54;27.60;99.90
20372;DHT22;42924;37.564;-122.048;2022-09-11T04:14:28;27.60;99.90
20372;DHT22;42924;37.564;-122.048;2022-09-11T04:17:05;27.60;99.90
20372;DHT22;42924;37.564;-122.048;2022-09-11T04:19:38;27.60;99.90
20372;DHT22;42924;37.564;-122.048;2022-09-11T04:22:10;27.60;99.90
20372;DHT22;42924;37.564;-122.048;2022-09-11T04:24:42;27.60;99.90
20372;DHT22;42924;37.564;-122.048;2022-09-11T04:27:16;27.60;99.90
20372;DHT22;42924;37.564;-122.048;2022-09-11T04:29:52;27.50;99.90
20372;DHT22;42924;37.564;-122.048;2022-09-11T04:32:23;27.50;99.90
20372;DHT22;42924;37.564;-122.048;2022-09-11T04:34:53;27.50;99.90
20372;DHT22;42924;37.564;-122.048;2022-09-11T04:37:24;27.50;99.90
20372;DHT22;42924;37.564;-122.048;2022-09-11T04:39:58;27.50;99.90
20372;DHT22;42924;37.564;-122.048;2022-09-11T04:42:30;27.50;99.90
20372;DHT22;42924;37.564;-122.048;2022-09-11T04:45:01;27.50;99.90
20372;DHT22;42924;37.564;-122.048;2022-09-11T04:47:33;27.50;99.90
20372;DHT22;42924;37.564;-122.048;2022-09-11T04:50:03;27.50;99.90
20372;DHT22;42924;37.564;-122.048;2022-09-11T04:52:34;27.50;99.90
20372;DHT22;42924;37.564;-122.048;2022-09-11T04:55:08;27.50;99.90
20372;DHT22;42924;37.564;-122.048;2022-09-11T04:57:40;27.40;99.90
20372;DHT22;42924;37.564;-122.048;2022-09-11T05:00:10;27.40;99.90
20372;DHT22;42924;37.564;-122.048;2022-09-11T05:02:43;27.40;99.90
20372;DHT22;42924;37.564;-122.048;2022-09-11T05:05:17;27.30;99.90
20372;DHT22;42924;37.564;-122.048;2022-09-11T05:07:49;27.20;99.90
20372;DHT22;42924;37.564;-122.048;2022-09-11T05:10:21;27.20;99.90
20372;DHT22;42924;37.564;-122.048;2022-09-11T05:12:55;27.10;99.90
20372;DHT22;42924;37.564;-122.048;2022-09-11T05:15:28;27.10;99.90
20372;DHT22;42924;37.564;-122.048;2022-09-11T05:18:03;27.10;99.90
20372;DHT22;42924;37.564;-122.048;2022-09-11T05:20:38;27.00;99.90
20372;DHT22;42924;37.564;-122.048;2022-09-11T05:23:12;27.00;99.90
20372;DHT22;42924;37.564;-122.048;2022-09-11T05:25:46;27.00;99.90
20372;DHT22;42924;37.564;-122.048;2022-09-11T05:28:19;27.00;99.90
20372;DHT22;42924;37.564;-122.048;2022-09-11T05:30:51;26.90;99.90
20372;DHT22;42924;37.564;-122.048;2022-09-11T05:33:23;26.80;99.90
20372;DHT22;42924;37.564;-122.048;2022-09-11T05:35:54;26.90;99.90
20372;DHT22;42924;37.564;-122.048;2022-09-11T05:38:27;26.70;99.90
20372;DHT22;42924;37.564;-122.048;2022-09-11T05:40:58;26.70;99.90
20372;DHT22;42924;37.564;-122.048;2022-09-11T05:43:29;26.80;99.90
20372;DHT22;42924;37.564;-122.048;2022-09-11T05:46:01;26.80;99.90
20372;DHT22;42924;37.564;-122.048;2022-09-11T05:48:34;26.70;99.90
20372;DHT22;42924;37.564;-122.048;2022-09-11T05:51:16;26.70;99.90
20372;DHT22;42924;37.564;-122.048;2022-09-11T05:53:53;26.70;99.90
20372;DHT22;42924;37.564;-122.048;2022-09-11T05:56:26;26.60;99.90
20372;DHT22;42924;37.564;-122.048;2022-09-11T05:59:11;26.50;99.90
20372;DHT22;42924;37.564;-122.048;2022-09-11T06:01:48;26.50;99.90
20372;DHT22;42924;37.564;-122.048;2022-09-11T06:04:28;26.50;99.90
20372;DHT22;42924;37.564;-122.048;2022-09-11T06:07:06;26.50;99.90
20372;DHT22;42924;37.564;-122.048;2022-09-11T06:09:38;26.50;99.90
20372;DHT22;42924;37.564;-122.048;2022-09-11T06:12:08;26.40;99.90
20372;DHT22;42924;37.564;-122.048;2022-09-11T06:14:43;26.40;99.90
20372;DHT22;42924;37.564;-122.048;2022-09-11T06:17:15;26.30;99.90
20372;DHT22;42924;37.564;-122.048;2022-09-11T06:19:49;26.30;99.90
20372;DHT22;42924;37.564;-122.048;2022-09-11T06:22:19;26.20;99.90
20372;DHT22;42924;37.564;-122.048;2022-09-11T06:24:53;26.20;99.90
20372;DHT22;42924;37.564;-122.048;2022-09-11T06:27:24;26.20;99.90
20372;DHT22;42924;37.564;-122.048;2022-09-11T06:29:54;26.10;99.90
20372;DHT22;42924;37.564;-122.048;2022-09-11T06:32:25;26.00;99.90
20372;DHT22;42924;37.564;-122.048;2022-09-11T06:34:58;26.10;99.90
20372;DHT22;42924;37.564;-122.048;2022-09-11T06:37:28;26.10;99.90
20372;DHT22;42924;37.564;-122.048;2022-09-11T06:40:00;26.10;99.90
20372;DHT22;42924;37.564;-122.048;2022-09-11T06:42:35;25.90;99.90
20372;DHT22;42924;37.564;-122.048;2022-09-11T06:45:05;25.90;99.90
20372;DHT22;42924;37.564;-122.048;2022-09-11T06:47:36;26.00;99.90
20372;DHT22;42924;37.564;-122.048;2022-09-11T06:50:08;25.90;99.90
20372;DHT22;42924;37.564;-122.048;2022-09-11T06:52:58;25.90;99.90
20372;DHT22;42924;37.564;-122.048;2022-09-11T06:55:30;25.90;99.90
20372;DHT22;42924;37.564;-122.048;2022-09-11T06:58:07;25.90;99.90
20372;DHT22;42924;37.564;-122.048;2022-09-11T07:00:41;25.90;99.90
20372;DHT22;42924;37.564;-122.048;2022-09-11T07:03:13;25.90;99.90
20372;DHT22;42924;37.564;-122.048;2022-09-11T07:05:46;25.80;99.90
20372;DHT22;42924;37.564;-122.048;2022-09-11T07:08:18;25.70;99.90
20372;DHT22;42924;37.564;-122.048;2022-09-11T07:10:53;25.70;99.90
20372;DHT22;42924;37.564;-122.048;2022-09-11T07:13:24;25.60;99.90
20372;DHT22;42924;37.564;-122.048;2022-09-11T07:16:06;25.50;99.90
20372;DHT22;42924;37.564;-122.048;2022-09-11T07:18:41;25.40;99.90
20372;DHT22;42924;37.564;-122.048;2022-09-11T07:21:19;25.30;99.90
20372;DHT22;42924;37.564;-122.048;2022-09-11T07:23:58;25.20;99.90
20372;DHT22;42924;37.564;-122.048;2022-09-11T07:26:33;25.20;99.90
20372;DHT22;42924;37.564;-122.048;2022-09-11T07:29:18;25.20;99.90
20372;DHT22;42924;37.564;-122.048;2022-09-11T07:31:48;25.20;99.90
20372;DHT22;42924;37.564;-122.048;2022-09-11T07:34:18;25.10;99.90
20372;DHT22;42924;37.564;-122.048;2022-09-11T07:36:57;25.00;99.90
20372;DHT22;42924;37.564;-122.048;2022-09-11T07:39:29;25.00;99.90
20372;DHT22;42924;37.564;-122.048;2022-09-11T07:42:04;25.10;99.90
20372;DHT22;42924;37.564;-122.048;2022-09-11T07:44:45;25.20;99.90
20372;DHT22;42924;37.564;-122.048;2022-09-11T07:47:18;25.10;99.90
20372;DHT22;42924;37.564;-122.048;2022-09-11T07:49:52;25.10;99.90
20372;DHT22;42924;37.564;-122.048;2022-09-11T07:52:25;24.90;99.90
20372;DHT22;42924;37.564;-122.048;2022-09-11T07:55:00;24.80;99.90
20372;DHT22;42924;37.564;-122.048;2022-09-11T07:57:34;24.80;99.90
20372;DHT22;42924;37.564;-122.048;2022-09-11T08:00:10;24.90;99.90
20372;DHT22;42924;37.564;-122.048;2022-09-11T08:03:00;25.00;99.90
20372;DHT22;42924;37.564;-122.048;2022-09-11T08:05:35;24.80;99.90
20372;DHT22;42924;37.564;-122.048;2022-09-11T08:08:07;24.80;99.90
20372;DHT22;42924;37.564;-122.048;2022-09-11T08:10:39;24.90;99.90
20372;DHT22;42924;37.564;-122.048;2022-09-11T08:13:10;24.90;99.90
20372;DHT22;42924;37.564;-122.048;2022-09-11T08:15:48;24.80;99.90
20372;DHT22;42924;37.564;-122.048;2022-09-11T08:18:19;24.90;99.90
20372;DHT22;42924;37.564;-122.048;2022-09-11T08:20:50;24.80;99.90
20372;DHT22;42924;37.564;-122.048;2022-09-11T08:23:20;25.00;99.90
20372;DHT22;42924;37.564;-122.048;2022-09-11T08:25:51;25.10;99.90
20372;DHT22;42924;37.564;-122.048;2022-09-11T08:28:22;25.10;99.90
20372;DHT22;42924;37.564;-122.048;2022-09-11T08:30:57;25.20;99.90
20372;DHT22;42924;37.564;-122.048;2022-09-11T08:33:31;25.10;99.90
20372;DHT22;42924;37.564;-122.048;2022-09-11T08:36:06;25.10;99.90
20372;DHT22;42924;37.564;-122.048;2022-09-11T08:38:40;25.10;99.90
20372;DHT22;42924;37.564;-122.048;2022-09-11T08:41:40;25.00;99.90
20372;DHT22;42924;37.564;-122.048;2022-09-11T08:44:23;25.00;99.90
20372;DHT22;42924;37.564;-122.048;2022-09-11T08:47:09;25.00;99.90
20372;DHT22;42924;37.564;-122.048;2022-09-11T08:49:57;24.90;99.90
20372;DHT22;42924;37.564;-122.048;2022-09-11T08:52:34;24.90;99.90
20372;DHT22;42924;37.564;-122.048;2022-09-11T08:55:20;24.80;99.90
20372;DHT22;42924;37.564;-122.048;2022-09-11T09:18:56;24.50;99.90
20372;DHT22;42924;37.564;-122.048;2022-09-11T09:21:29;24.50;99.90
20372;DHT22;42924;37.564;-122.048;2022-09-11T09:24:10;24.50;99.90
20372;DHT22;42924;37.564;-122.048;2022-09-11T09:26:54;24.50;99.90
20372;DHT22;42924;37.564;-122.048;2022-09-11T09:29:30;24.50;99.90
20372;DHT22;42924;37.564;-122.048;2022-09-11T09:32:17;24.60;99.90
20372;DHT22;42924;37.564;-122.048;2022-09-11T09:34:51;24.50;99.90
20372;DHT22;42924;37.564;-122.048;2022-09-11T09:37:27;24.50;99.90
20372;DHT22;42924;37.564;-122.048;2022-09-11T09:40:04;24.60;99.90
20372;DHT22;42924;37.564;-122.048;2022-09-11T09:43:00;24.70;99.90
20372;DHT22;42924;37.564;-122.048;2022-09-11T09:46:01;24.80;99.90
20372;DHT22;42924;37.564;-122.048;2022-09-11T09:48:34;24.80;99.90
20372;DHT22;42924;37.564;-122.048;2022-09-11T09:51:11;24.70;99.90
20372;DHT22;42924;37.564;-122.048;2022-09-11T09:53:54;24.50;99.90
20372;DHT22;42924;37.564;-122.048;2022-09-11T09:56:28;24.40;99.90
20372;DHT22;42924;37.564;-122.048;2022-09-11T10:01:41;24.40;99.90
20372;DHT22;42924;37.564;-122.048;2022-09-11T10:06:53;24.30;99.90
20372;DHT22;42924;37.564;-122.048;2022-09-11T10:09:34;24.40;99.90
20372;DHT22;42924;37.564;-122.048;2022-09-11T10:12:22;24.40;99.90
20372;DHT22;42924;37.564;-122.048;2022-09-11T10:15:02;24.20;99.90
20372;DHT22;42924;37.564;-122.048;2022-09-11T10:17:37;24.20;99.90
20372;DHT22;42924;37.564;-122.048;2022-09-11T10:22:54;24.40;99.90
20372;DHT22;42924;37.564;-122.048;2022-09-11T10:25:25;24.40;99.90
20372;DHT22;42924;37.564;-122.048;2022-09-11T10:28:04;24.40;99.90
20372;DHT22;42924;37.564;-122.048;2022-09-11T10:30:59;24.40;99.90
20372;DHT22;42924;37.564;-122.048;2022-09-11T10:33:32;24.30;99.90
20372;DHT22;42924;37.564;-122.048;2022-09-11T10:36:08;24.00;99.90
20372;DHT22;42924;37.564;-122.048;2022-09-11T10:38:45;24.00;99.90
20372;DHT22;42924;37.564;-122.048;2022-09-11T10:41:22;24.00;99.90
20372;DHT22;42924;37.564;-122.048;2022-09-11T10:46:35;24.20;99.90
20372;DHT22;42924;37.564;-122.048;2022-09-11T10:49:22;24.10;99.90
20372;DHT22;42924;37.564;-122.048;2022-09-11T10:52:16;23.80;99.90
20372;DHT22;42924;37.564;-122.048;2022-09-11T10:55:10;23.90;99.90
20372;DHT22;42924;37.564;-122.048;2022-09-11T10:58:01;24.00;99.90
20372;DHT22;42924;37.564;-122.048;2022-09-11T11:00:33;24.00;99.90
20372;DHT22;42924;37.564;-122.048;2022-09-11T11:03:18;23.90;99.90
20372;DHT22;42924;37.564;-122.048;2022-09-11T11:06:54;23.70;99.90
20372;DHT22;42924;37.564;-122.048;2022-09-11T11:09:21;23.50;99.90
20372;DHT22;42924;37.564;-122.048;2022-09-11T11:18:25;23.70;99.90
20372;DHT22;42924;37.564;-122.048;2022-09-11T11:24:35;23.90;99.90
20372;DHT22;42924;37.564;-122.048;2022-09-11T11:30:13;23.70;99.90
20372;DHT22;42924;37.564;-122.048;2022-09-11T11:33:04;23.70;99.90
20372;DHT22;42924;37.564;-122.048;2022-09-11T11:38:57;23.60;99.90
20372;DHT22;42924;37.564;-122.048;2022-09-11T11:41:39;23.40;99.90
20372;DHT22;42924;37.564;-122.048;2022-09-11T11:44:20;23.40;99.90
20372;DHT22;42924;37.564;-122.048;2022-09-11T11:47:00;23.40;99.90
20372;DHT22;42924;37.564;-122.048;2022-09-11T11:50:04;23.20;99.90
20372;DHT22;42924;37.564;-122.048;2022-09-11T11:59:01;23.50;99.90
20372;DHT22;42924;37.564;-122.048;2022-09-11T12:01:35;23.30;99.90
20372;DHT22;42924;37.564;-122.048;2022-09-11T12:07:01;23.50;99.90
20372;DHT22;42924;37.564;-122.048;2022-09-11T12:09:35;23.40;99.90
20372;DHT22;42924;37.564;-122.048;2022-09-11T12:12:06;23.40;99.90
20372;DHT22;42924;37.564;-122.048;2022-09-11T12:14:36;23.40;99.90
20372;DHT22;42924;37.564;-122.048;2022-09-11T12:17:28;23.40;99.90
20372;DHT22;42924;37.564;-122.048;2022-09-11T12:22:48;23.60;99.90
20372;DHT22;42924;37.564;-122.048;2022-09-11T12:28:37;23.80;99.90
20372;DHT22;42924;37.564;-122.048;2022-09-11T12:31:12;23.70;99.90
20372;DHT22;42924;37.564;-122.048;2022-09-11T12:33:50;23.60;99.90
20372;DHT22;42924;37.564;-122.048;2022-09-11T12:36:42;23.60;99.90
20372;DHT22;42924;37.564;-122.048;2022-09-11T12:39:24;23.70;99.90
20372;DHT22;42924;37.564;-122.048;2022-09-11T12:47:39;23.80;99.90
20372;DHT22;42924;37.564;-122.048;2022-09-11T12:50:21;23.80;99.90
20372;DHT22;42924;37.564;-122.048;2022-09-11T12:52:56;23.70;99.90
20372;DHT22;42924;37.564;-122.048;2022-09-11T12:55:49;23.80;99.90
20372;DHT22;42924;37.564;-122.048;2022-09-11T12:58:38;23.90;99.90
20372;DHT22;42924;37.564;-122.048;2022-09-11T13:01:44;23.80;99.90
20372;DHT22;42924;37.564;-122.048;2022-09-11T13:04:21;24.00;99.90
20372;DHT22;42924;37.564;-122.048;2022-09-11T13:07:03;24.10;99.90
20372;DHT22;42924;37.564;-122.048;2022-09-11T13:09:40;24.10;99.90
20372;DHT22;42924;37.564;-122.048;2022-09-11T13:14:58;24.10;99.90
20372;DHT22;42924;37.564;-122.048;2022-09-11T13:17:31;24.10;99.90
20372;DHT22;42924;37.564;-122.048;2022-09-11T13:22:37;23.90;99.90
20372;DHT22;42924;37.564;-122.048;2022-09-11T13:25:15;24.00;99.90
20372;DHT22;42924;37.564;-122.048;2022-09-11T13:27:54;23.90;99.90
20372;DHT22;42924;37.564;-122.048;2022-09-11T13:30:26;23.80;99.90
20372;DHT22;42924;37.564;-122.048;2022-09-11T13:33:06;23.90;99.90
20372;DHT22;42924;37.564;-122.048;2022-09-11T13:35:39;23.90;99.90
20372;DHT22;42924;37.564;-122.048;2022-09-11T13:38:26;24.00;99.90
20372;DHT22;42924;37.564;-122.048;2022-09-11T13:41:02;24.10;99.90
20372;DHT22;42924;37.564;-122.048;2022-09-11T13:43:44;24.20;99.90
20372;DHT22;42924;37.564;-122.048;2022-09-11T13:48:49;24.30;99.90
20372;DHT22;42924;37.564;-122.048;2022-09-11T13:51:25;24.40;99.90
20372;DHT22;42924;37.564;-122.048;2022-09-11T13:59:44;24.50;99.90
20372;DHT22;42924;37.564;-122.048;2022-09-11T14:05:22;24.70;99.90
20372;DHT22;42924;37.564;-122.048;2022-09-11T14:08:02;24.70;99.90
20372;DHT22;42924;37.564;-122.048;2022-09-11T14:10:44;24.80;99.90
20372;DHT22;42924;37.564;-122.048;2022-09-11T14:13:39;24.80;99.90
20372;DHT22;42924;37.564;-122.048;2022-09-11T14:18:45;24.80;99.90
20372;DHT22;42924;37.564;-122.048;2022-09-11T14:21:23;24.80;99.90
20372;DHT22;42924;37.564;-122.048;2022-09-11T14:23:57;24.80;99.90
20372;DHT22;42924;37.564;-122.048;2022-09-11T14:29:24;24.70;99.90
20372;DHT22;42924;37.564;-122.048;2022-09-11T14:32:29;24.60;99.90
20372;DHT22;42924;37.564;-122.048;2022-09-11T14:35:06;24.70;99.90
20372;DHT22;42924;37.564;-122.048;2022-09-11T14:37:43;24.80;99.90
20372;DHT22;42924;37.564;-122.048;2022-09-11T14:40:18;24.80;99.90
20372;DHT22;42924;37.564;-122.048;2022-09-11T14:42:49;24.80;99.90
20372;DHT22;42924;37.564;-122.048;2022-09-11T14:45:23;24.90;99.90
20372;DHT22;42924;37.564;-122.048;2022-09-11T14:47:54;25.10;99.90
20372;DHT22;42924;37.564;-122.048;2022-09-11T14:50:24;25.10;99.90
20372;DHT22;42924;37.564;-122.048;2022-09-11T14:52:54;25.10;99.90
20372;DHT22;42924;37.564;-122.048;2022-09-11T14:55:24;25.10;99.90
20372;DHT22;42924;37.564;-122.048;2022-09-11T14:57:56;25.00;99.90
20372;DHT22;42924;37.564;-122.048;2022-09-11T15:00:26;24.90;99.90
20372;DHT22;42924;37.564;-122.048;2022-09-11T15:03:00;24.80;99.90
20372;DHT22;42924;37.564;-122.048;2022-09-11T15:05:33;24.80;99.90
20372;DHT22;42924;37.564;-122.048;2022-09-11T15:08:04;24.80;99.90
20372;DHT22;42924;37.564;-122.048;2022-09-11T15:10:35;24.90;99.90
20372;DHT22;42924;37.564;-122.048;2022-09-11T15:13:06;24.90;99.90
20372;DHT22;42924;37.564;-122.048;2022-09-11T15:15:36;25.00;99.90
20372;DHT22;42924;37.564;-122.048;2022-09-11T15:18:09;25.00;99.90
20372;DHT22;42924;37.564;-122.048;2022-09-11T15:20:40;25.10;99.90
20372;DHT22;42924;37.564;-122.048;2022-09-11T15:23:11;25.00;99.90
20372;DHT22;42924;37.564;-122.048;2022-09-11T15:25:42;25.00;99.90
20372;DHT22;42924;37.564;-122.048;2022-09-11T15:28:12;25.00;99.90
20372;DHT22;42924;37.564;-122.048;2022-09-11T15:30:45;25.00;99.90
20372;DHT22;42924;37.564;-122.048;2022-09-11T15:33:22;25.10;99.90
20372;DHT22;42924;37.564;-122.048;2022-09-11T15:35:54;25.30;99.90
20372;DHT22;42924;37.564;-122.048;2022-09-11T15:38:25;25.20;99.90
20372;DHT22;42924;37.564;-122.048;2022-09-11T15:40:55;25.30;99.90
20372;DHT22;42924;37.564;-122.048;2022-09-11T15:43:37;25.40;99.90
20372;DHT22;42924;37.564;-122.048;2022-09-11T15:46:08;25.40;99.90
20372;DHT22;42924;37.564;-122.048;2022-09-11T15:48:40;25.50;99.90
20372;DHT22;42924;37.564;-122.048;2022-09-11T15:51:20;25.40;99.90
20372;DHT22;42924;37.564;-122.048;2022-09-11T15:54:00;25.40;99.90
20372;DHT22;42924;37.564;-122.048;2022-09-11T15:56:32;25.50;99.90
20372;DHT22;42924;37.564;-122.048;2022-09-11T15:59:07;25.50;99.90
20372;DHT22;42924;37.564;-122.048;2022-09-11T16:01:40;25.60;99.90
20372;DHT22;42924;37.564;-122.048;2022-09-11T16:04:15;25.80;99.90
20372;DHT22;42924;37.564;-122.048;2022-09-11T16:06:51;25.90;99.90
20372;DHT22;42924;37.564;-122.048;2022-09-11T16:09:29;25.90;99.90
20372;DHT22;42924;37.564;-122.048;2022-09-11T16:12:01;25.90;99.90
20372;DHT22;42924;37.564;-122.048;2022-09-11T16:14:35;26.00;99.90
20372;DHT22;42924;37.564;-122.048;2022-09-11T16:17:07;26.00;99.90
20372;DHT22;42924;37.564;-122.048;2022-09-11T16:19:37;26.10;99.90
20372;DHT22;42924;37.564;-122.048;2022-09-11T16:22:09;26.20;99.90
20372;DHT22;42924;37.564;-122.048;2022-09-11T16:24:42;26.10;99.90
20372;DHT22;42924;37.564;-122.048;2022-09-11T16:27:16;26.10;99.90
20372;DHT22;42924;37.564;-122.048;2022-09-11T16:29:48;26.10;99.90
20372;DHT22;42924;37.564;-122.048;2022-09-11T16:32:39;26.20;99.90
20372;DHT22;42924;37.564;-122.048;2022-09-11T16:35:11;26.30;99.90
20372;DHT22;42924;37.564;-122.048;2022-09-11T16:37:42;26.40;99.90
20372;DHT22;42924;37.564;-122.048;2022-09-11T16:40:13;26.40;99.90
20372;DHT22;42924;37.564;-122.048;2022-09-11T16:42:44;26.30;99.90
20372;DHT22;42924;37.564;-122.048;2022-09-11T16:45:15;26.50;99.90
20372;DHT22;42924;37.564;-122.048;2022-09-11T16:47:48;26.50;99.90
20372;DHT22;42924;37.564;-122.048;2022-09-11T16:50:21;26.50;99.90
20372;DHT22;42924;37.564;-122.048;2022-09-11T16:52:52;26.60;99.90
20372;DHT22;42924;37.564;-122.048;2022-09-11T16:55:22;26.60;99.90
20372;DHT22;42924;37.564;-122.048;2022-09-11T16:57:57;26.60;99.90
20372;DHT22;42924;37.564;-122.048;2022-09-11T17:00:30;26.60;99.90
20372;DHT22;42924;37.564;-122.048;2022-09-11T17:03:00;26.80;99.90
20372;DHT22;42924;37.564;-122.048;2022-09-11T17:05:32;26.90;99.90
20372;DHT22;42924;37.564;-122.048;2022-09-11T17:08:03;26.90;99.90
20372;DHT22;42924;37.564;-122.048;2022-09-11T17:10:33;27.00;99.90
20372;DHT22;42924;37.564;-122.048;2022-09-11T17:13:08;27.00;99.90
20372;DHT22;42924;37.564;-122.048;2022-09-11T17:15:39;27.00;99.90
20372;DHT22;42924;37.564;-122.048;2022-09-11T17:18:10;27.20;99.90
20372;DHT22;42924;37.564;-122.048;2022-09-11T17:20:40;27.10;99.90
20372;DHT22;42924;37.564;-122.048;2022-09-11T17:23:12;27.20;99.90
20372;DHT22;42924;37.564;-122.048;2022-09-11T17:25:48;27.40;99.90
20372;DHT22;42924;37.564;-122.048;2022-09-11T17:28:20;27.40;99.90
20372;DHT22;42924;37.564;-122.048;2022-09-11T17:30:50;27.10;99.90
20372;DHT22;42924;37.564;-122.048;2022-09-11T17:33:23;27.20;99.90
20372;DHT22;42924;37.564;-122.048;2022-09-11T17:35:57;27.10;99.90
20372;DHT22;42924;37.564;-122.048;2022-09-11T17:38:28;27.10;99.90
20372;DHT22;42924;37.564;-122.048;2022-09-11T17:41:02;27.50;99.90
20372;DHT22;42924;37.564;-122.048;2022-09-11T17:43:34;27.60;99.90